• Join FlightAware (Why Join?)
  • Login
  • US Flag 
12:43AM EDT


 

Airport Tracker/Info


-or-


 

Live Flight TrackerFlight Track Log ✈ WJA2153 ✈ 11-May-2013 ✈ MMPR / PVR - CYVR

Flight Track Log - Related Links

Times and Time Zones

All times are in EDT time to prevent confusion due to time zone crossing. See the WJA2153 flight status page for this flight to view local times or setup timezone preferences in your user account.

Time Position Orientation Groundspeed Altitude Reporting Facility
EDT Latitude Longitude Course Direction KTS MPH feet Rate Location/Type
10:55PM 30.7422 -110.6800 339° North 431 496 38,000  Level Albuquerque Center
10:56PM 30.8650 -110.7339 339° North 429 494 38,000  Level Albuquerque Center
10:57PM 30.9753 -110.7858 338° Northwest 428 493 38,000  Level Albuquerque Center
10:58PM 31.0878 -110.8378 338° Northwest 432 497 38,000  Level Albuquerque Center
10:59PM 31.2000 -110.8886 339° North 433 498 38,000  Level Albuquerque Center
11:00PM 31.3092 -110.9392 338° Northwest 426 490 38,000  Level Albuquerque Center
11:01PM 31.4236 -110.9786 344° North 424 488 38,000  Level Albuquerque Center
11:02PM 31.5361 -111.0150 345° North 421 484 38,000  Level Albuquerque Center
11:03PM 31.6483 -111.0561 343° North 414 476 38,000  Level Albuquerque Center
11:04PM 31.7619 -111.0944 344° North 420 483 38,000  Level Albuquerque Center
11:05PM 31.8742 -111.1333 344° North 420 483 38,000  Level Albuquerque Center
11:06PM 31.9861 -111.1725 343° North 419 482 38,000  Level Albuquerque Center
11:07PM 32.0972 -111.2122 343° North 418 481 38,000  Level Albuquerque Center
11:08PM 32.2311 -111.2600 343° North 418 481 38,000  Level Albuquerque Center
11:09PM 32.3439 -111.2972 344° North 419 482 38,000  Level Albuquerque Center
11:10PM 32.4558 -111.3378 343° North 420 483 38,000  Level Albuquerque Center
11:11PM 32.5675 -111.3767 344° North 418 481 38,000  Level Albuquerque Center
11:12PM 32.6781 -111.4164 343° North 417 480 38,000  Level Albuquerque Center
11:13PM 32.7881 -111.4558 343° North 414 476 38,000  Level Albuquerque Center
11:14PM 32.8986 -111.4950 343° North 414 476 38,000  Level Albuquerque Center
11:15PM 33.0103 -111.5342 344° North 416 479 38,000  Level Albuquerque Center
11:16PM 33.1239 -111.5514 353° North 410 472 38,000  Level Albuquerque Center
11:17PM 33.2403 -111.5522 360° North 416 479 38,000  Level Albuquerque Center
11:18PM 33.3556 -111.5531 360° North 416 479 38,000  Level Albuquerque Center
11:19PM 33.4700 -111.5569 358° North 413 475 38,000  Level Albuquerque Center
11:20PM 33.5822 -111.5972 343° North 421 484 38,000  Level Albuquerque Center
11:21PM 33.6922 -111.6406 342° North 418 481 38,000  Level Albuquerque Center
11:22PM 33.8167 -111.6906 342° North 417 480 38,000  Level Albuquerque Center
11:23PM 33.9272 -111.7347 342° North 418 481 38,000  Level Albuquerque Center
11:24PM 34.0383 -111.7778 342° North 420 483 38,000  Level Albuquerque Center
11:25PM 34.1486 -111.8222 342° North 419 482 38,000  Level Albuquerque Center
11:26PM 34.2564 -111.8642 342° North 416 479 38,000  Level Albuquerque Center
11:27PM 34.3656 -111.9078 342° North 415 478 38,000  Level Albuquerque Center
11:28PM 34.4744 -111.9514 342° North 413 475 38,000  Level Albuquerque Center
11:29PM 34.5817 -111.9947 342° North 409 471 38,000  Level Albuquerque Center
11:30PM 34.6886 -112.0381 342° North 407 468 38,000  Level Albuquerque Center
11:31PM 34.8058 -112.0858 341° North 406 467 38,000  Level Albuquerque Center
11:32PM 34.9108 -112.1286 342° North 403 464 38,000  Level Albuquerque Center
11:33PM 35.0172 -112.1700 342° North 403 464 38,000  Level Albuquerque Center
11:34PM 35.1225 -112.2128 342° North 403 464 38,000  Level Albuquerque Center
11:35PM 35.2278 -112.2550 342° North 402 463 38,000  Level Albuquerque Center
11:37PM 35.3331 -112.2972 342° North 402 463 38,000  Level Albuquerque Center
11:38PM 35.4378 -112.3414 341° North 402 463 38,000  Level Albuquerque Center
11:38PM 35.5433 -112.3842 342° North 404 465 38,000  Level Los Angeles Center
11:39PM 35.6478 -112.4267 342° North 400 460 38,000  Level Los Angeles Center
11:41PM 35.7722 -112.4786 341° North 398 458 38,000  Level Los Angeles Center
11:42PM 35.8550 -112.5117 342° North 395 455 38,000  Level Los Angeles Center
11:43PM 35.9772 -112.5631 341° North 395 455 38,000  Level Los Angeles Center
11:44PM 36.0803 -112.6061 341° North 393 452 38,000  Level Los Angeles Center
11:45PM 36.1844 -112.6492 342° North 393 452 38,000  Level Los Angeles Center
11:46PM 36.2883 -112.6925 341° North 394 453 38,000  Level Los Angeles Center
11:47PM 36.3925 -112.7372 341° North 394 453 38,000  Level Los Angeles Center
11:48PM 36.5183 -112.7886 342° North 396 456 38,000  Level Los Angeles Center
11:49PM 36.6236 -112.8339 341° North 399 459 38,000  Level Los Angeles Center
11:50PM 36.7292 -112.8786 341° North 402 463 38,000  Level Los Angeles Center
11:51PM 36.8333 -112.9225 341° North 397 457 38,000  Level Los Angeles Center
11:52PM 36.9381 -112.9681 341° North 398 458 38,000  Level Los Angeles Center
11:53PM 37.0411 -113.0122 341° North 392 451 38,000  Level Los Angeles Center
11:54PM 37.1456 -113.0569 341° North 393 452 38,000  Level Los Angeles Center
11:55PM 37.2500 -113.1028 341° North 395 455 38,000  Level Los Angeles Center
11:56PM 37.3550 -113.1483 341° North 395 455 38,000  Level Los Angeles Center
11:57PM 37.4803 -113.2022 341° North 394 453 38,000  Level Los Angeles Center
11:58PM 37.5850 -113.2497 340° North 395 455 38,000  Level Los Angeles Center
11:59PM 37.6908 -113.2958 341° North 399 459 38,000  Level Los Angeles Center
12:00AM 37.7961 -113.3425 341° North 398 458 38,000  Level Los Angeles Center
12:01AM 37.9025 -113.3900 341° North 402 463 38,000  Level Los Angeles Center
12:02AM 37.9975 -113.4642 328° Northwest 401 461 38,000  Level Salt Lake Center
12:03AM 38.0947 -113.5394 329° Northwest 406 467 38,000  Level Salt Lake Center
12:04AM 38.1917 -113.6133 329° Northwest 407 468 38,000  Level Salt Lake Center
12:05AM 38.2875 -113.6886 328° Northwest 405 466 38,000  Level Salt Lake Center
12:06AM 38.3819 -113.7631 328° Northwest 402 463 38,000  Level Salt Lake Center
12:07AM 38.4775 -113.8375 329° Northwest 402 463 38,000  Level Salt Lake Center
12:08AM 38.5731 -113.9128 328° Northwest 403 464 38,000  Level Salt Lake Center
12:09AM 38.6681 -113.9892 328° Northwest 403 464 38,000  Level Salt Lake Center
12:10AM 38.7633 -114.0647 328° Northwest 404 465 38,000  Level Salt Lake Center
12:11AM 38.8569 -114.1414 327° Northwest 400 460 38,000  Level Salt Lake Center
12:12AM 38.9686 -114.2319 328° Northwest 397 457 38,000  Level Salt Lake Center
12:13AM 39.0633 -114.3069 328° Northwest 398 458 38,000  Level Salt Lake Center
12:14AM 39.1575 -114.3836 328° Northwest 402 463 38,000  Level Salt Lake Center
12:15AM 39.2481 -114.4625 326° Northwest 397 457 38,000  Level Salt Lake Center
12:16AM 39.3378 -114.5356 328° Northwest 397 457 38,000  Level Salt Lake Center
12:17AM 39.4275 -114.6083 328° Northwest 398 458 38,000  Level Salt Lake Center
12:18AM 39.5350 -114.6906 329° Northwest 400 460 38,000  Level Salt Lake Center
12:19AM 39.6236 -114.7647 327° Northwest 397 457 38,000  Level Salt Lake Center
12:20AM 39.7117 -114.8383 327° Northwest 395 455 38,000  Level Salt Lake Center
12:21AM 39.8144 -114.9222 328° Northwest 392 451 38,000  Level Salt Lake Center
12:22AM 39.9011 -114.9956 327° Northwest 389 448 38,000  Level Salt Lake Center
12:23AM 39.9892 -115.0681 328° Northwest 390 449 38,000  Level Salt Lake Center
12:24AM 40.0914 -115.1547 327° Northwest 392 451 38,000  Level Salt Lake Center
12:25AM 40.1772 -115.2300 326° Northwest 390 449 38,000  Level Salt Lake Center
12:26AM 40.2664 -115.3028 328° Northwest 393 452 38,000  Level Salt Lake Center
12:27AM 40.3703 -115.3897 327° Northwest 396 456 38,000  Level Salt Lake Center
12:28AM 40.4583 -115.4639 327° Northwest 396 456 38,000  Level Salt Lake Center
12:29AM 40.5439 -115.5392 326° Northwest 390 449 38,000  Level Salt Lake Center
12:30AM 40.6311 -115.6139 327° Northwest 391 450 38,000  Level Salt Lake Center
12:31AM 40.7356 -115.7025 327° Northwest 398 458 38,000  Level Salt Lake Center
12:32AM 40.8244 -115.7778 327° Northwest 399 459 38,000  Level Salt Lake Center
12:33AM 40.9142 -115.8542 327° Northwest 402 463 38,000  Level Salt Lake Center
12:34AM 41.0169 -115.9431 327° Northwest 398 458 38,000  Level Salt Lake Center
12:35AM 41.1036 -116.0186 327° Northwest 394 453 38,000  Level Salt Lake Center
12:36AM 41.1906 -116.0944 327° Northwest 392 451 38,000  Level Salt Lake Center
12:37AM 41.2928 -116.1850 326° Northwest 394 453 38,000  Level Salt Lake Center
12:38AM 41.3806 -116.2614 327° Northwest 397 457 38,000  Level Salt Lake Center
12:39AM 41.4681 -116.3403 326° Northwest 398 458 38,000  Level Salt Lake Center
12:40AM 41.5706 -116.4311 326° Northwest 398 458 38,000  Level Salt Lake Center
12:41AM 41.6600 -116.5108 326° Northwest 402 463 38,000  Level Salt Lake Center
12:42AM 41.7483 -116.5908 326° Northwest 403 464 38,000  Level Salt Lake Center
12:43AM 41.8539 -116.6825 327° Northwest 404 465 38,000  Level Salt Lake Center
12:44AM 41.9431 -116.7636 326° Northwest 406 467 38,000  Level Salt Lake Center
12:45AM 42.0331 -116.8425 327° Northwest 404 465 38,000  Level Salt Lake Center
12:46AM 42.1372 -116.9369 326° Northwest 405 466 38,000  Level Salt Lake Center
12:47AM 42.2264 -117.0186 326° Northwest 406 467 38,000  Level Salt Lake Center
12:48AM 42.3186 -117.1022 326° Northwest 405 466 38,000  Level Salt Lake Center
12:49AM 42.4081 -117.1836 326° Northwest 404 465 38,000  Level Salt Lake Center
12:50AM 42.5133 -117.2803 326° Northwest 408 470 38,000  Level Salt Lake Center
12:51AM 42.6036 -117.3631 326° Northwest 409 471 38,000  Level Salt Lake Center
12:52AM 42.6925 -117.4469 325° Northwest 406 467 38,000  Level Salt Lake Center
12:53AM 42.7983 -117.5439 326° Northwest 411 473 38,000  Level Salt Lake Center
12:54AM 42.8881 -117.6289 325° Northwest 409 471 38,000  Level Salt Lake Center
12:55AM 42.9783 -117.7125 326° Northwest 411 473 38,000  Level Salt Lake Center
12:56AM 43.0686 -117.7972 326° Northwest 410 472 38,000  Level Salt Lake Center
12:57AM 43.1731 -117.8961 325° Northwest 409 471 38,000  Level Salt Lake Center
12:58AM 43.2628 -117.9797 326° Northwest 408 470 38,000  Level Salt Lake Center
01:00AM 43.4261 -118.1350 325° Northwest 408 470 38,000  Level Salt Lake Center
01:01AM 43.5153 -118.2206 325° Northwest 408 470 38,000  Level Salt Lake Center
01:02AM 43.6003 -118.3022 325° Northwest 409 471 38,000  Level Salt Lake Center
01:03AM 43.6944 -118.3911 326° Northwest 409 471 38,000  Level Salt Lake Center
01:04AM 43.7894 -118.4828 325° Northwest 414 476 38,000  Level Salt Lake Center
01:05AM 43.8842 -118.5750 325° Northwest 417 480 38,000  Level Salt Lake Center
01:06AM 43.9786 -118.6664 325° Northwest 416 479 38,000  Level Salt Lake Center
01:07AM 44.0742 -118.7592 325° Northwest 418 481 38,000  Level Salt Lake Center
01:08AM 44.1511 -118.8353 325° Northwest 425 489 38,000  Level Seattle Center
01:09AM 44.2453 -118.9286 325° Northwest 419 482 38,000  Level Seattle Center
01:10AM 44.3419 -119.0219 325° Northwest 423 487 38,000  Level Seattle Center
01:11AM 44.4378 -119.1172 325° Northwest 424 488 38,000  Level Seattle Center
01:12AM 44.5325 -119.2122 324° Northwest 421 484 38,000  Level Seattle Center
01:13AM 44.6278 -119.3072 325° Northwest 421 484 38,000  Level Seattle Center
01:14AM 44.7219 -119.4025 324° Northwest 419 482 38,000  Level Seattle Center
01:15AM 44.8342 -119.5147 325° Northwest 415 478 38,000  Level Seattle Center
01:16AM 44.9275 -119.6086 325° Northwest 416 479 38,000  Level Seattle Center
01:17AM 45.0200 -119.7042 324° Northwest 418 481 38,000  Level Seattle Center
01:18AM 45.1131 -119.7981 325° Northwest 420 483 38,000  Level Seattle Center
01:19AM 45.1981 -119.9050 318° Northwest 418 481 38,000  Level Seattle Center
01:20AM 45.2781 -120.0208 314° West 415 478 38,000  Level Seattle Center
01:21AM 45.3575 -120.1392 314° West 416 479 38,000  Level Seattle Center
01:22AM 45.4394 -120.2578 315° West 420 483 38,000  Level Seattle Center
01:23AM 45.5222 -120.3758 315° West 422 486 38,000  Level Seattle Center
01:24AM 45.6044 -120.4953 315° West 422 486 38,000  Level Seattle Center
01:25AM 45.6883 -120.6147 315° West 426 490 38,000  Level Seattle Center
01:26AM 45.7700 -120.7356 314° West 425 489 38,000  Level Seattle Center
01:27AM 45.8531 -120.8542 315° West 423 487 38,000  Level Seattle Center
01:28AM 45.9386 -120.9731 316° Northwest 426 490 38,000  Level Seattle Center
01:29AM 46.0242 -121.0894 317° Northwest 427 491 38,000  Level Seattle Center
01:30AM 46.1111 -121.2067 317° Northwest 428 493 38,000  Level Seattle Center
01:31AM 46.2314 -121.2647 342° North 446 513 38,000  Level Seattle Center
01:32AM 46.3461 -121.3339 337° Northwest 449 517 38,000  Level Seattle Center
01:33AM 46.4631 -121.4025 338° Northwest 453 521 38,000  Level Seattle Center
01:34AM 46.5817 -121.4725 338° Northwest 459 528 38,000  Level Seattle Center
01:35AM 46.7000 -121.5419 338° Northwest 460 529 38,000  Level Seattle Center
01:36AM 46.8250 -121.6150 338° Northwest 460 529 38,000  Level Seattle Center
01:37AM 46.9419 -121.6833 338° Northwest 458 527 38,000  Level Seattle Center
01:38AM 47.0578 -121.7561 337° Northwest 458 527 38,000  Level Seattle Center
01:39AM 47.1750 -121.8242 338° Northwest 458 527 38,000  Level Seattle Center
01:40AM 47.2928 -121.8956 338° Northwest 463 533 38,000 -240 Level Seattle Center
01:41AM 47.4336 -121.9792 338° Northwest 460 529 37,600 -1,560 Descending Seattle Center
01:42AM 47.5486 -122.0497 338° Northwest 458 527 34,900 -2,760 Descending Seattle Center
01:43AM 47.6653 -122.1200 338° Northwest 461 531 32,100 -2,580 Descending Seattle Center
01:44AM 47.7808 -122.1911 338° Northwest 464 534 29,800 -2,340 Descending Seattle Center
01:45AM 47.8933 -122.2614 337° Northwest 453 521 27,400 -2,340 Descending Seattle Center
01:46AM 48.0119 -122.3036 347° North 447 514 25,200 -2,220 Descending Seattle Center
01:47AM 48.1294 -122.3378 349° North 439 505 23,000 -2,160 Descending Seattle Center
01:48AM 48.2428 -122.3722 349° North 425 489 20,900 -2,340 Descending Seattle Center
01:49AM 48.3781 -122.4111 349° North 418 481 18,400 -2,280 Descending Seattle Center
01:50AM 48.4858 -122.4422 349° North 403 464 16,400 -2,100 Descending Seattle Center
01:51AM 48.5931 -122.4744 349° North 402 463 14,200 -2,160 Descending Seattle Center
01:52AM 48.6983 -122.5064 349° North 394 453 12,100 -1,500 Descending Seattle Center
01:53AM 48.7167 -122.5333 316° Northwest 380 437 12,000 -120 Descending Vancouver Center
01:54AM 48.7833 -122.6667 307° West 340 391 12,000  Level Vancouver Center
01:55AM 48.8500 -122.7667 315° West 340 391 12,000  Level Vancouver Center
01:56AM 48.9000 -122.8667 307° West 340 391 12,000 -360 Level Vancouver Center
01:57AM 48.9667 -122.9833 311° West 340 391 11,300 -840 Descending Vancouver Center
01:58AM 49.0167 -123.0833 307° West 330 380 10,400 -1,140 Descending Vancouver Center
01:59AM 49.0667 -123.1833 307° West 300 345 9,100 -1,440 Descending Vancouver Center
02:00AM 49.0833 -123.2833 284° West 270 311 7,600 -1,500 Descending Vancouver Center
02:01AM 49.1000 -123.3833 284° West 270 311 6,100 -1,740 Descending Vancouver Center
02:02AM 49.1167 -123.5167 281° West 270 311 4,200 -1,680 Descending Vancouver Center
02:03AM 49.1833 -123.5500 342° North 280 322 2,800 -900 Descending Vancouver Center
02:04AM 49.2000 -123.4333 78° East 230 265 2,500 -300 Descending Vancouver Center